createdAt,value
2022-09-26T00:00:11.463Z,15.26
2022-09-26T00:02:43.767Z,15.23
2022-09-26T00:05:13.544Z,15.22
2022-09-26T00:07:42.433Z,15.19
2022-09-26T00:10:11.980Z,15.18
2022-09-26T00:12:45.846Z,15.19
2022-09-26T00:15:18.220Z,15.17
2022-09-26T00:17:48.469Z,15.16
2022-09-26T00:20:21.428Z,15.16
2022-09-26T00:22:53.592Z,15.14
2022-09-26T00:25:22.537Z,15.15
2022-09-26T00:27:51.957Z,15.14
2022-09-26T00:30:19.771Z,15.09
2022-09-26T00:32:47.666Z,15.08
2022-09-26T00:35:16.211Z,15.08
2022-09-26T00:37:44.271Z,15.04
2022-09-26T00:40:12.348Z,15.01
2022-09-26T00:42:40.397Z,15.00
2022-09-26T00:45:11.469Z,14.98
2022-09-26T00:47:47.076Z,14.92
2022-09-26T00:50:21.272Z,14.91
2022-09-26T00:52:53.871Z,14.85
2022-09-26T00:55:24.990Z,14.84
2022-09-26T00:57:55.133Z,14.83
2022-09-26T01:00:24.650Z,14.80
2022-09-26T01:02:54.591Z,14.79
2022-09-26T01:05:24.874Z,14.79
2022-09-26T01:07:54.979Z,14.76
2022-09-26T01:10:24.613Z,14.73
2022-09-26T01:12:53.381Z,14.72
2022-09-26T01:15:21.064Z,14.67
2022-09-26T01:17:52.007Z,14.66
2022-09-26T01:20:34.535Z,14.63
2022-09-26T01:23:33.179Z,14.60
2022-09-26T01:26:26.576Z,14.59
2022-09-26T01:29:24.405Z,14.55
2022-09-26T01:32:22.457Z,14.55
2022-09-26T01:34:59.459Z,14.52
2022-09-26T01:37:33.933Z,14.48
2022-09-26T01:40:10.110Z,14.45
2022-09-26T01:42:49.489Z,14.45
2022-09-26T01:45:23.833Z,14.43
2022-09-26T01:48:01.940Z,14.41
2022-09-26T01:50:44.987Z,14.37
2022-09-26T01:54:00.682Z,14.37
2022-09-26T01:56:33.675Z,14.38
2022-09-26T01:59:06.479Z,14.37
2022-09-26T02:01:40.085Z,14.33
2022-09-26T02:04:12.300Z,14.33
2022-09-26T02:06:46.015Z,14.32
2022-09-26T02:09:18.179Z,14.30
2022-09-26T02:11:50.801Z,14.29
2022-09-26T02:14:23.123Z,14.28
2022-09-26T02:16:53.840Z,14.26
2022-09-26T02:19:27.027Z,14.24
2022-09-26T02:21:55.490Z,14.24
2022-09-26T02:24:23.827Z,14.24
2022-09-26T02:26:52.105Z,14.24
2022-09-26T02:29:22.531Z,14.24
2022-09-26T02:31:57.794Z,14.23
2022-09-26T02:34:27.375Z,14.23
2022-09-26T02:36:57.384Z,14.20
2022-09-26T02:39:28.521Z,14.18
2022-09-26T02:42:18.364Z,14.14
2022-09-26T02:45:01.783Z,14.10
2022-09-26T02:47:47.263Z,14.04
2022-09-26T02:50:39.777Z,14.01
2022-09-26T02:53:20.720Z,13.98
2022-09-26T02:56:05.588Z,13.97
2022-09-26T02:58:45.798Z,13.96
2022-09-26T03:01:20.327Z,13.94
2022-09-26T03:03:54.764Z,13.91
2022-09-26T03:06:39.451Z,13.88
2022-09-26T03:09:08.743Z,13.84
2022-09-26T03:11:37.266Z,13.83
2022-09-26T03:14:05.645Z,13.80
2022-09-26T03:16:38.265Z,13.75
2022-09-26T03:19:12.565Z,13.72
2022-09-26T03:21:42.159Z,13.72
2022-09-26T03:24:10.745Z,13.72
2022-09-26T03:26:39.664Z,13.72
2022-09-26T03:29:07.368Z,13.72
2022-09-26T03:31:37.054Z,13.73
2022-09-26T03:34:07.269Z,13.71
2022-09-26T03:36:35.089Z,13.73
2022-09-26T03:39:05.659Z,13.72
2022-09-26T03:41:42.958Z,13.71
2022-09-26T03:44:11.333Z,13.69
2022-09-26T03:46:57.512Z,13.67
2022-09-26T03:49:25.368Z,13.63
2022-09-26T03:51:53.159Z,13.62
2022-09-26T03:54:23.021Z,13.59
2022-09-26T03:56:51.089Z,13.58
2022-09-26T03:59:18.793Z,13.60
2022-09-26T04:01:48.584Z,13.58
2022-09-26T04:04:16.540Z,13.53
2022-09-26T04:06:45.585Z,13.50
2022-09-26T04:09:17.647Z,13.48
2022-09-26T04:11:53.321Z,13.48
2022-09-26T04:14:22.185Z,13.43
2022-09-26T04:16:55.374Z,13.41
2022-09-26T04:19:33.736Z,13.41
2022-09-26T04:22:02.102Z,13.41
2022-09-26T04:24:33.161Z,13.40
2022-09-26T04:27:02.242Z,13.39
2022-09-26T04:29:31.235Z,13.36
2022-09-26T04:32:14.125Z,13.31
2022-09-26T04:35:03.447Z,13.24
2022-09-26T04:37:37.096Z,13.18
2022-09-26T04:40:05.778Z,13.12
2022-09-26T04:42:37.037Z,13.05
2022-09-26T04:45:06.540Z,13.03
2022-09-26T04:47:35.021Z,13.01
2022-09-26T04:50:27.292Z,13.03
2022-09-26T04:53:09.423Z,13.03
2022-09-26T04:55:45.974Z,13.03
2022-09-26T04:58:17.378Z,13.04
2022-09-26T05:00:47.817Z,13.01
2022-09-26T05:03:18.572Z,13.00
2022-09-26T05:05:48.398Z,12.99
2022-09-26T05:08:16.407Z,12.99
2022-09-26T05:10:44.806Z,12.99
2022-09-26T05:13:12.512Z,12.93
2022-09-26T05:15:42.863Z,12.91
2022-09-26T05:18:11.592Z,12.89
2022-09-26T05:20:40.119Z,12.86
2022-09-26T05:23:09.286Z,12.84
2022-09-26T05:25:57.556Z,12.82
2022-09-26T05:28:25.989Z,12.80
2022-09-26T05:30:56.968Z,12.78
2022-09-26T05:33:24.792Z,12.79
2022-09-26T05:35:54.844Z,12.74
2022-09-26T05:38:22.969Z,12.76
2022-09-26T05:40:56.652Z,12.78
2022-09-26T05:43:25.253Z,12.78
2022-09-26T05:45:59.163Z,12.80
2022-09-26T05:48:30.219Z,12.82
2022-09-26T05:50:58.158Z,12.82
2022-09-26T05:53:25.934Z,12.82
2022-09-26T05:55:54.696Z,12.83
2022-09-26T05:58:36.149Z,12.79
2022-09-26T06:01:28.423Z,12.76
2022-09-26T06:04:05.879Z,12.75
2022-09-26T06:06:44.266Z,12.75
2022-09-26T06:09:19.252Z,12.79
2022-09-26T06:11:47.183Z,12.84
2022-09-26T06:14:14.957Z,12.84
2022-09-26T06:16:44.018Z,12.83
2022-09-26T06:19:11.843Z,12.87
2022-09-26T06:21:40.319Z,12.92
2022-09-26T06:24:13.186Z,12.96
2022-09-26T06:26:42.182Z,13.00
2022-09-26T06:29:11.656Z,13.01
2022-09-26T06:31:42.283Z,13.04
2022-09-26T06:34:13.022Z,13.22
2022-09-26T06:37:10.097Z,13.62
2022-09-26T06:39:39.051Z,13.97
2022-09-26T06:42:08.284Z,14.40
2022-09-26T06:44:48.972Z,14.79
2022-09-26T06:47:26.171Z,15.33
2022-09-26T06:50:16.121Z,15.74
2022-09-26T06:52:47.923Z,16.14
2022-09-26T06:55:16.093Z,16.45
2022-09-26T06:57:45.025Z,16.76
2022-09-26T07:00:16.713Z,17.09
2022-09-26T07:03:05.654Z,17.54
2022-09-26T07:05:46.902Z,18.02
2022-09-26T07:08:16.987Z,18.23
2022-09-26T07:10:44.943Z,18.48
2022-09-26T07:13:29.249Z,18.79
2022-09-26T07:15:59.057Z,19.09
2022-09-26T07:18:40.056Z,19.30
2022-09-26T07:21:23.686Z,19.71
2022-09-26T07:24:03.711Z,20.04
2022-09-26T07:26:32.686Z,20.30
2022-09-26T07:29:00.474Z,20.47
2022-09-26T07:31:30.465Z,20.57
2022-09-26T07:34:08.591Z,20.62
2022-09-26T07:36:40.748Z,20.57
2022-09-26T07:39:09.806Z,20.42
2022-09-26T07:41:37.671Z,20.75
2022-09-26T07:47:10.922Z,20.50
2022-09-26T07:49:56.435Z,19.66
2022-09-26T07:52:37.296Z,18.85
2022-09-26T07:55:27.280Z,18.19
2022-09-26T07:58:10.186Z,17.83
2022-09-26T08:01:11.373Z,17.62
2022-09-26T08:04:06.502Z,17.48
2022-09-26T08:06:38.097Z,17.24
2022-09-26T08:09:08.114Z,17.10
2022-09-26T08:11:56.348Z,17.11
2022-09-26T08:14:42.598Z,17.20
2022-09-26T08:17:17.495Z,17.07
2022-09-26T08:19:45.610Z,16.85
2022-09-26T08:22:14.620Z,16.72
2022-09-26T08:24:49.697Z,16.65
2022-09-26T08:27:37.890Z,16.69
2022-09-26T08:30:07.680Z,16.83
2022-09-26T08:32:35.284Z,16.97
2022-09-26T08:35:03.795Z,17.09
2022-09-26T08:37:57.119Z,17.17
2022-09-26T08:40:51.286Z,17.21
2022-09-26T08:44:06.312Z,17.18
2022-09-26T08:47:01.257Z,17.10
2022-09-26T08:49:43.083Z,17.10
2022-09-26T08:52:34.280Z,17.08
2022-09-26T08:55:06.709Z,17.04
2022-09-26T08:57:41.843Z,16.97
2022-09-26T09:00:20.098Z,16.99
2022-09-26T09:03:05.186Z,17.21
2022-09-26T09:05:39.105Z,17.38
2022-09-26T09:08:13.681Z,17.29
2022-09-26T09:11:01.949Z,17.13
2022-09-26T09:13:48.935Z,16.97
2022-09-26T09:16:51.634Z,16.80
2022-09-26T09:19:50.698Z,16.86
2022-09-26T09:22:53.694Z,17.20
2022-09-26T09:25:32.497Z,17.48
2022-09-26T09:28:16.766Z,17.61
2022-09-26T09:30:49.576Z,17.72
2022-09-26T09:33:39.719Z,17.75
2022-09-26T09:36:33.097Z,18.21
2022-09-26T09:39:27.624Z,19.06
2022-09-26T09:42:06.402Z,19.03
2022-09-26T09:44:46.771Z,18.95
2022-09-26T09:47:18.408Z,19.19
2022-09-26T09:49:49.077Z,20.05
2022-09-26T09:52:35.803Z,20.87
2022-09-26T09:55:17.201Z,21.51
2022-09-26T09:58:07.417Z,21.53
2022-09-26T10:00:42.494Z,21.50
2022-09-26T10:03:27.751Z,21.38
2022-09-26T10:06:00.960Z,21.28
2022-09-26T10:08:34.514Z,20.90
2022-09-26T10:11:19.472Z,20.73
2022-09-26T10:14:09.446Z,20.48
2022-09-26T10:17:20.631Z,20.14
2022-09-26T10:20:10.231Z,20.59
2022-09-26T10:22:45.584Z,21.24
2022-09-26T10:25:26.795Z,21.33
2022-09-26T10:27:57.579Z,21.71
2022-09-26T10:30:32.302Z,22.33
2022-09-26T10:33:26.265Z,23.08
2022-09-26T10:36:32.762Z,23.46
2022-09-26T10:39:21.842Z,23.04
2022-09-26T10:41:59.174Z,22.55
2022-09-26T10:44:29.923Z,22.05
2022-09-26T10:47:09.502Z,21.77
2022-09-26T10:50:06.761Z,21.16
2022-09-26T10:52:49.684Z,20.87
2022-09-26T10:55:24.899Z,20.57
2022-09-26T10:57:56.903Z,20.46
2022-09-26T11:00:39.064Z,20.83
2022-09-26T11:03:17.092Z,21.58
2022-09-26T11:06:05.406Z,21.98
2022-09-26T11:08:38.762Z,22.35
2022-09-26T11:11:23.200Z,22.66
2022-09-26T11:14:03.543Z,22.90
2022-09-26T11:16:39.562Z,22.78
2022-09-26T11:19:15.795Z,22.78
2022-09-26T11:21:49.669Z,22.58
2022-09-26T11:24:25.839Z,22.19
2022-09-26T11:27:05.686Z,21.69
2022-09-26T11:29:42.907Z,21.43
2022-09-26T11:32:25.431Z,21.03
2022-09-26T11:35:44.109Z,20.46
2022-09-26T11:38:38.382Z,19.91
2022-09-26T11:41:38.318Z,19.56
2022-09-26T11:44:33.717Z,19.36
2022-09-26T11:47:46.485Z,19.03
2022-09-26T11:50:35.655Z,18.78
2022-09-26T11:53:52.904Z,18.53
2022-09-26T11:56:39.536Z,18.40
2022-09-26T11:59:23.616Z,18.30
2022-09-26T12:01:55.988Z,18.26
2022-09-26T12:04:48.181Z,18.35
2022-09-26T12:07:22.365Z,18.54
2022-09-26T12:10:07.218Z,18.66
2022-09-26T12:12:48.054Z,18.52
2022-09-26T12:15:23.710Z,18.39
2022-09-26T12:18:08.315Z,18.28
2022-09-26T12:20:41.341Z,18.29
2022-09-26T12:23:21.285Z,18.24
2022-09-26T12:26:00.783Z,18.22
2022-09-26T12:28:51.263Z,18.08
2022-09-26T12:31:29.362Z,18.10
2022-09-26T12:34:12.362Z,18.43
2022-09-26T12:36:55.659Z,18.89
2022-09-26T12:39:42.533Z,19.06
2022-09-26T12:42:25.559Z,18.89
2022-09-26T12:45:15.299Z,18.67
2022-09-26T12:48:14.737Z,18.51
2022-09-26T12:50:54.502Z,18.42
2022-09-26T12:53:55.383Z,18.34
2022-09-26T12:56:37.323Z,18.42
2022-09-26T12:59:17.230Z,18.49
2022-09-26T13:02:07.868Z,18.46
2022-09-26T13:05:06.126Z,18.37
2022-09-26T13:07:48.456Z,18.41
2022-09-26T13:10:38.104Z,18.48
2022-09-26T13:13:29.098Z,18.58
2022-09-26T13:16:13.565Z,18.53
2022-09-26T13:18:47.235Z,18.44
2022-09-26T13:21:21.194Z,18.42
2022-09-26T13:23:55.936Z,18.45
2022-09-26T13:26:29.114Z,18.36
2022-09-26T13:29:17.176Z,18.26
2022-09-26T13:31:48.987Z,18.22
2022-09-26T13:34:25.290Z,18.11
2022-09-26T13:37:00.273Z,17.93
2022-09-26T13:39:35.511Z,17.75
2022-09-26T13:42:11.695Z,17.64
2022-09-26T13:44:58.065Z,17.58
2022-09-26T13:47:38.460Z,17.58
2022-09-26T13:50:26.466Z,17.58
2022-09-26T13:53:09.391Z,17.55
2022-09-26T13:55:38.959Z,17.61
2022-09-26T13:58:22.304Z,17.63
2022-09-26T14:00:53.928Z,17.71
2022-09-26T14:03:48.885Z,17.75
2022-09-26T14:06:41.387Z,17.77
2022-09-26T14:09:25.080Z,17.76
2022-09-26T14:12:37.141Z,17.77
2022-09-26T14:15:24.979Z,17.69
2022-09-26T14:18:21.349Z,17.69
2022-09-26T14:21:07.249Z,17.74
2022-09-26T14:23:51.489Z,17.70
2022-09-26T14:26:26.405Z,17.63
2022-09-26T14:29:28.421Z,17.59
2022-09-26T14:32:04.976Z,17.58
2022-09-26T14:34:42.521Z,17.60
2022-09-26T14:37:34.376Z,17.59
2022-09-26T14:40:26.917Z,17.57
2022-09-26T14:43:00.630Z,17.52
2022-09-26T14:45:51.262Z,17.49
2022-09-26T14:48:45.118Z,17.45
2022-09-26T14:51:35.089Z,17.44
2022-09-26T14:54:08.098Z,17.38
2022-09-26T14:56:49.485Z,17.31
2022-09-26T14:59:44.340Z,17.24
2022-09-26T15:02:41.892Z,17.19
2022-09-26T15:05:26.736Z,17.21
2022-09-26T15:08:01.139Z,17.25
2022-09-26T15:10:42.971Z,17.28
2022-09-26T15:13:23.398Z,17.22
2022-09-26T15:16:02.382Z,17.16
2022-09-26T15:18:42.235Z,17.13
2022-09-26T15:21:23.847Z,17.09
2022-09-26T15:23:56.445Z,17.10
2022-09-26T15:26:34.520Z,17.10
2022-09-26T15:29:12.487Z,17.05
2022-09-26T15:31:48.503Z,17.01
2022-09-26T15:34:25.399Z,16.97
2022-09-26T15:36:58.828Z,16.93
2022-09-26T15:39:48.795Z,16.91
2022-09-26T15:42:44.525Z,16.87
2022-09-26T15:45:30.520Z,16.87
2022-09-26T15:48:04.047Z,16.86
2022-09-26T15:50:42.626Z,16.84
2022-09-26T15:56:24.444Z,16.81
2022-09-26T15:59:00.014Z,16.75
2022-09-26T16:01:31.671Z,16.72
2022-09-26T16:04:05.014Z,16.71
2022-09-26T16:06:43.589Z,16.70
2022-09-26T16:09:22.344Z,16.67
2022-09-26T16:11:54.229Z,16.66
2022-09-26T16:14:33.769Z,16.64
2022-09-26T16:17:20.857Z,16.63
2022-09-26T16:19:55.922Z,16.62
2022-09-26T16:22:53.688Z,16.57
2022-09-26T16:25:37.580Z,16.55
2022-09-26T16:28:45.758Z,16.48
2022-09-26T16:31:30.027Z,16.40
2022-09-26T16:34:03.894Z,16.38
2022-09-26T16:36:38.560Z,16.34
2022-09-26T16:39:27.119Z,16.29
2022-09-26T16:42:12.857Z,16.24
2022-09-26T16:44:44.545Z,16.20
2022-09-26T16:47:35.240Z,16.17
2022-09-26T16:50:41.324Z,16.15
2022-09-26T16:53:18.340Z,16.14
2022-09-26T16:56:16.864Z,16.14
2022-09-26T16:58:52.832Z,16.10
2022-09-26T17:01:39.885Z,16.02
2022-09-26T17:04:13.984Z,15.99
2022-09-26T17:06:46.809Z,15.95
2022-09-26T17:09:43.660Z,15.91
2022-09-26T17:12:19.333Z,15.90
2022-09-26T17:14:52.528Z,15.84
2022-09-26T17:17:35.321Z,15.78
2022-09-26T17:20:05.567Z,15.76
2022-09-26T17:22:43.245Z,15.72
2022-09-26T17:25:27.969Z,15.66
2022-09-26T17:27:59.778Z,15.56
2022-09-26T17:30:43.249Z,15.51
2022-09-26T17:33:20.214Z,15.48
2022-09-26T17:36:00.945Z,15.42
2022-09-26T17:38:38.589Z,15.40
2022-09-26T17:41:11.206Z,15.37
2022-09-26T17:43:41.985Z,15.31
2022-09-26T17:46:16.420Z,15.28
2022-09-26T17:48:48.235Z,15.25
2022-09-26T17:51:23.441Z,15.25
2022-09-26T17:54:06.116Z,15.23
2022-09-26T17:56:41.203Z,15.19
2022-09-26T17:59:16.810Z,15.11
2022-09-26T18:01:48.525Z,15.12
2022-09-26T18:04:25.648Z,15.10
2022-09-26T18:07:01.577Z,15.09
2022-09-26T18:09:35.529Z,15.05
2022-09-26T18:12:05.614Z,15.02
2022-09-26T18:14:38.863Z,14.98
2022-09-26T18:17:07.500Z,14.97
2022-09-26T18:19:45.034Z,14.95
2022-09-26T18:22:21.538Z,14.89
2022-09-26T18:24:54.940Z,14.84
2022-09-26T18:27:29.310Z,14.81
2022-09-26T18:29:59.209Z,14.76
2022-09-26T18:32:34.003Z,14.73
2022-09-26T18:35:01.769Z,14.66
2022-09-26T18:37:35.293Z,14.63
2022-09-26T18:40:05.223Z,14.61
2022-09-26T18:42:44.548Z,14.54
2022-09-26T18:45:17.824Z,14.51
2022-09-26T18:47:48.389Z,14.50
2022-09-26T18:50:27.080Z,14.47
2022-09-26T18:52:58.359Z,14.46
2022-09-26T18:55:47.060Z,14.42
2022-09-26T18:58:29.614Z,14.35
2022-09-26T19:01:01.757Z,14.33
2022-09-26T19:03:32.698Z,14.34
2022-09-26T19:06:12.631Z,14.32
2022-09-26T19:08:46.318Z,14.29
2022-09-26T19:11:35.775Z,14.24
2022-09-26T19:14:38.716Z,14.18
2022-09-26T19:17:07.253Z,14.17
2022-09-26T19:19:37.311Z,14.17
2022-09-26T19:22:14.091Z,14.18
2022-09-26T19:24:49.274Z,14.15
2022-09-26T19:27:27.531Z,14.11
2022-09-26T19:30:04.594Z,14.06
2022-09-26T19:35:39.119Z,14.06
2022-09-26T19:38:17.851Z,13.98
2022-09-26T19:40:48.845Z,13.97
2022-09-26T19:43:17.174Z,13.95
2022-09-26T19:45:47.164Z,13.92
2022-09-26T19:48:18.511Z,13.91
2022-09-26T19:50:48.309Z,13.89
2022-09-26T19:53:18.115Z,13.89
2022-09-26T19:55:50.514Z,13.87
2022-09-26T19:58:20.713Z,13.88
2022-09-26T20:00:51.418Z,13.85
2022-09-26T20:03:21.088Z,13.81
2022-09-26T20:05:50.475Z,13.77
2022-09-26T20:08:21.984Z,13.72
2022-09-26T20:10:50.116Z,13.70
2022-09-26T20:13:19.159Z,13.71
2022-09-26T20:15:47.777Z,13.72
2022-09-26T20:18:20.693Z,13.71
2022-09-26T20:20:54.417Z,13.65
2022-09-26T20:23:24.298Z,13.60
2022-09-26T20:25:53.780Z,13.58
2022-09-26T20:28:22.112Z,13.60
2022-09-26T20:30:52.653Z,13.59
2022-09-26T20:33:23.788Z,13.59
2022-09-26T20:35:53.931Z,13.58
2022-09-26T20:38:27.031Z,13.55
2022-09-26T20:41:01.726Z,13.56
2022-09-26T20:43:33.541Z,13.55
2022-09-26T20:46:11.045Z,13.53
2022-09-26T20:48:42.884Z,13.52
2022-09-26T20:51:19.063Z,13.53
2022-09-26T20:53:46.772Z,13.53
2022-09-26T20:56:16.889Z,13.53
2022-09-26T20:58:45.313Z,13.56
2022-09-26T21:01:14.670Z,13.56
2022-09-26T21:03:45.653Z,13.57
2022-09-26T21:06:17.486Z,13.56
2022-09-26T21:08:45.800Z,13.57
2022-09-26T21:11:15.321Z,13.57
2022-09-26T21:13:43.276Z,13.59
2022-09-26T21:16:13.970Z,13.58
2022-09-26T21:18:45.175Z,13.59
2022-09-26T21:21:21.964Z,13.58
2022-09-26T21:23:59.547Z,13.59
2022-09-26T21:26:29.969Z,13.61
2022-09-26T21:28:58.771Z,13.61
2022-09-26T21:31:29.680Z,13.60
2022-09-26T21:34:00.528Z,13.58
2022-09-26T21:36:34.961Z,13.59
2022-09-26T21:39:03.287Z,13.60
2022-09-26T21:41:31.067Z,13.62
2022-09-26T21:44:02.811Z,13.61
2022-09-26T21:46:30.950Z,13.62
2022-09-26T21:49:00.160Z,13.63
2022-09-26T21:51:29.195Z,13.63
2022-09-26T21:54:02.307Z,13.62
2022-09-26T21:56:34.077Z,13.64
2022-09-26T21:59:01.836Z,13.66
2022-09-26T22:01:29.975Z,13.63
2022-09-26T22:03:58.491Z,13.60
2022-09-26T22:06:27.839Z,13.60
2022-09-26T22:08:55.663Z,13.57
2022-09-26T22:11:23.290Z,13.58
2022-09-26T22:13:51.151Z,13.58
2022-09-26T22:16:18.880Z,13.59
2022-09-26T22:18:46.879Z,13.58
2022-09-26T22:21:14.753Z,13.59
2022-09-26T22:23:43.769Z,13.61
2022-09-26T22:26:11.599Z,13.58
2022-09-26T22:28:39.914Z,13.58
2022-09-26T22:31:07.975Z,13.57
2022-09-26T22:33:35.732Z,13.54
2022-09-26T22:36:03.754Z,13.56
2022-09-26T22:38:33.308Z,13.55
2022-09-26T22:41:03.891Z,13.57
2022-09-26T22:43:33.149Z,13.55
2022-09-26T22:46:05.546Z,13.57
2022-09-26T22:48:34.216Z,13.59
2022-09-26T22:51:02.048Z,13.58
2022-09-26T22:53:31.715Z,13.56
2022-09-26T22:56:05.451Z,13.55
2022-09-26T22:58:37.735Z,13.54
2022-09-26T23:01:07.809Z,13.56
2022-09-26T23:03:36.206Z,13.57
2022-09-26T23:06:05.146Z,13.59
2022-09-26T23:08:33.544Z,13.59
2022-09-26T23:11:02.721Z,13.58
2022-09-26T23:13:32.236Z,13.56
2022-09-26T23:16:06.328Z,13.54
2022-09-26T23:18:34.767Z,13.54
2022-09-26T23:21:09.968Z,13.54
2022-09-26T23:23:38.558Z,13.57
2022-09-26T23:26:07.799Z,13.56
2022-09-26T23:28:36.095Z,13.53
2022-09-26T23:31:09.894Z,13.52
2022-09-26T23:33:38.020Z,13.52
2022-09-26T23:36:06.844Z,13.50
2022-09-26T23:38:36.049Z,13.45
2022-09-26T23:41:04.297Z,13.40
2022-09-26T23:43:33.038Z,13.33
2022-09-26T23:46:00.825Z,13.30
2022-09-26T23:48:29.908Z,13.29
2022-09-26T23:50:58.240Z,13.28
2022-09-26T23:53:26.051Z,13.29
2022-09-26T23:55:54.013Z,13.28
2022-09-26T23:58:21.655Z,13.26
